sensor_id;sensor_type;location;lat;lon;timestamp;pressure;altitude;pressure_sealevel;temperature;humidity
46718;BME280;32448;44.960;-0.698;2023-12-20T00:02:12;102404.88;;;10.13;100.00
46718;BME280;32448;44.960;-0.698;2023-12-20T00:04:39;102393.13;;;10.03;100.00
46718;BME280;32448;44.960;-0.698;2023-12-20T00:07:06;102385.13;;;10.00;100.00
46718;BME280;32448;44.960;-0.698;2023-12-20T00:09:33;102388.63;;;10.01;100.00
46718;BME280;32448;44.960;-0.698;2023-12-20T00:12:00;102390.44;;;10.02;100.00
46718;BME280;32448;44.960;-0.698;2023-12-20T00:14:27;102389.53;;;10.01;100.00
46718;BME280;32448;44.960;-0.698;2023-12-20T00:16:54;102391.25;;;10.01;100.00
46718;BME280;32448;44.960;-0.698;2023-12-20T00:19:21;102397.53;;;10.04;100.00
46718;BME280;32448;44.960;-0.698;2023-12-20T00:21:48;102396.72;;;10.07;100.00
46718;BME280;32448;44.960;-0.698;2023-12-20T00:24:15;102390.09;;;10.13;100.00
46718;BME280;32448;44.960;-0.698;2023-12-20T00:26:41;102376.81;;;10.28;100.00
46718;BME280;32448;44.960;-0.698;2023-12-20T00:29:09;102356.81;;;10.29;100.00
46718;BME280;32448;44.960;-0.698;2023-12-20T00:31:35;102374.66;;;10.39;100.00
46718;BME280;32448;44.960;-0.698;2023-12-20T00:34:02;102370.41;;;10.41;100.00
46718;BME280;32448;44.960;-0.698;2023-12-20T00:36:29;102372.94;;;10.39;100.00
46718;BME280;32448;44.960;-0.698;2023-12-20T00:38:56;102371.94;;;10.36;100.00
46718;BME280;32448;44.960;-0.698;2023-12-20T00:41:23;102379.97;;;10.40;100.00
46718;BME280;32448;44.960;-0.698;2023-12-20T00:43:50;102377.50;;;10.43;100.00
46718;BME280;32448;44.960;-0.698;2023-12-20T00:46:17;102371.38;;;10.43;100.00
46718;BME280;32448;44.960;-0.698;2023-12-20T00:48:44;102376.91;;;10.50;100.00
46718;BME280;32448;44.960;-0.698;2023-12-20T00:51:12;102379.75;;;10.55;100.00
46718;BME280;32448;44.960;-0.698;2023-12-20T00:53:39;102354.88;;;10.44;100.00
46718;BME280;32448;44.960;-0.698;2023-12-20T00:56:05;102359.84;;;10.58;100.00
46718;BME280;32448;44.960;-0.698;2023-12-20T00:58:33;102373.03;;;10.62;100.00
46718;BME280;32448;44.960;-0.698;2023-12-20T01:05:37;102380.34;;;10.69;100.00
46718;BME280;32448;44.960;-0.698;2023-12-20T01:08:19;102389.38;;;10.77;100.00
46718;BME280;32448;44.960;-0.698;2023-12-20T01:10:49;102386.00;;;10.79;100.00
46718;BME280;32448;44.960;-0.698;2023-12-20T01:13:17;102388.75;;;10.82;100.00
46718;BME280;32448;44.960;-0.698;2023-12-20T01:15:45;102388.47;;;10.97;100.00
46718;BME280;32448;44.960;-0.698;2023-12-20T01:18:33;102405.34;;;11.04;100.00
46718;BME280;32448;44.960;-0.698;2023-12-20T01:21:26;102402.56;;;11.21;100.00
46718;BME280;32448;44.960;-0.698;2023-12-20T01:23:53;102408.19;;;11.53;100.00
46718;BME280;32448;44.960;-0.698;2023-12-20T01:26:19;102415.41;;;11.58;100.00
46718;BME280;32448;44.960;-0.698;2023-12-20T01:28:46;102427.53;;;11.56;100.00
46718;BME280;32448;44.960;-0.698;2023-12-20T01:31:23;102441.88;;;11.66;100.00
46718;BME280;32448;44.960;-0.698;2023-12-20T01:33:51;102440.38;;;11.50;100.00
46718;BME280;32448;44.960;-0.698;2023-12-20T01:36:18;102436.56;;;11.42;100.00
46718;BME280;32448;44.960;-0.698;2023-12-20T01:38:46;102434.41;;;11.32;100.00
46718;BME280;32448;44.960;-0.698;2023-12-20T01:41:13;102436.47;;;11.18;100.00
46718;BME280;32448;44.960;-0.698;2023-12-20T01:43:40;102437.34;;;11.19;100.00
46718;BME280;32448;44.960;-0.698;2023-12-20T01:46:17;102428.16;;;11.08;100.00
46718;BME280;32448;44.960;-0.698;2023-12-20T01:48:44;102397.28;;;10.99;100.00
46718;BME280;32448;44.960;-0.698;2023-12-20T01:51:11;102442.97;;;11.07;100.00
46718;BME280;32448;44.960;-0.698;2023-12-20T01:54:01;102439.81;;;11.14;100.00
46718;BME280;32448;44.960;-0.698;2023-12-20T01:56:42;102431.31;;;10.99;100.00
46718;BME280;32448;44.960;-0.698;2023-12-20T01:59:49;102445.88;;;10.92;100.00
46718;BME280;32448;44.960;-0.698;2023-12-20T02:02:23;102463.75;;;11.03;100.00
46718;BME280;32448;44.960;-0.698;2023-12-20T02:04:57;102455.53;;;10.95;100.00
46718;BME280;32448;44.960;-0.698;2023-12-20T02:07:40;102442.00;;;10.84;100.00
46718;BME280;32448;44.960;-0.698;2023-12-20T02:10:39;102456.94;;;10.87;100.00
46718;BME280;32448;44.960;-0.698;2023-12-20T02:13:21;102449.84;;;10.84;100.00
46718;BME280;32448;44.960;-0.698;2023-12-20T02:16:06;102458.50;;;10.82;100.00
46718;BME280;32448;44.960;-0.698;2023-12-20T02:18:45;102481.97;;;10.80;100.00
46718;BME280;32448;44.960;-0.698;2023-12-20T02:21:25;102488.78;;;10.77;100.00
46718;BME280;32448;44.960;-0.698;2023-12-20T02:23:53;102492.50;;;10.63;100.00
46718;BME280;32448;44.960;-0.698;2023-12-20T02:26:23;102484.66;;;10.63;100.00
46718;BME280;32448;44.960;-0.698;2023-12-20T02:28:50;102481.78;;;10.56;100.00
46718;BME280;32448;44.960;-0.698;2023-12-20T02:31:16;102498.84;;;10.68;100.00
46718;BME280;32448;44.960;-0.698;2023-12-20T02:33:43;102522.31;;;10.66;100.00
46718;BME280;32448;44.960;-0.698;2023-12-20T02:36:11;102520.28;;;10.61;100.00
46718;BME280;32448;44.960;-0.698;2023-12-20T02:38:37;102518.53;;;10.60;100.00
46718;BME280;32448;44.960;-0.698;2023-12-20T02:41:04;102518.56;;;10.61;100.00
46718;BME280;32448;44.960;-0.698;2023-12-20T02:43:38;102493.66;;;10.50;100.00
46718;BME280;32448;44.960;-0.698;2023-12-20T02:46:05;102503.44;;;10.54;100.00
46718;BME280;32448;44.960;-0.698;2023-12-20T02:48:34;102499.88;;;10.52;100.00
46718;BME280;32448;44.960;-0.698;2023-12-20T02:51:06;102483.66;;;10.59;100.00
46718;BME280;32448;44.960;-0.698;2023-12-20T02:53:38;102497.31;;;10.53;100.00
46718;BME280;32448;44.960;-0.698;2023-12-20T02:56:05;102510.41;;;10.53;100.00
46718;BME280;32448;44.960;-0.698;2023-12-20T02:58:39;102496.78;;;10.41;100.00
46718;BME280;32448;44.960;-0.698;2023-12-20T03:01:09;102514.72;;;10.53;100.00
46718;BME280;32448;44.960;-0.698;2023-12-20T03:03:36;102510.31;;;10.33;100.00
46718;BME280;32448;44.960;-0.698;2023-12-20T03:06:03;102541.50;;;10.47;100.00
46718;BME280;32448;44.960;-0.698;2023-12-20T03:08:30;102527.16;;;10.39;100.00
46718;BME280;32448;44.960;-0.698;2023-12-20T03:10:59;102533.09;;;10.35;100.00
46718;BME280;32448;44.960;-0.698;2023-12-20T03:13:26;102540.31;;;10.41;100.00
46718;BME280;32448;44.960;-0.698;2023-12-20T03:15:53;102538.53;;;10.40;100.00
46718;BME280;32448;44.960;-0.698;2023-12-20T03:18:19;102551.88;;;10.46;100.00
46718;BME280;32448;44.960;-0.698;2023-12-20T03:20:46;102548.72;;;10.34;100.00
46718;BME280;32448;44.960;-0.698;2023-12-20T03:23:14;102566.94;;;10.32;100.00
46718;BME280;32448;44.960;-0.698;2023-12-20T03:25:41;102574.53;;;10.45;100.00
46718;BME280;32448;44.960;-0.698;2023-12-20T03:28:08;102544.06;;;10.28;100.00
46718;BME280;32448;44.960;-0.698;2023-12-20T03:30:35;102569.97;;;10.41;100.00
46718;BME280;32448;44.960;-0.698;2023-12-20T03:33:02;102568.88;;;10.36;100.00
46718;BME280;32448;44.960;-0.698;2023-12-20T03:35:29;102593.97;;;10.33;100.00
46718;BME280;32448;44.960;-0.698;2023-12-20T03:37:56;102581.38;;;10.24;100.00
46718;BME280;32448;44.960;-0.698;2023-12-20T03:40:23;102589.34;;;10.27;100.00
46718;BME280;32448;44.960;-0.698;2023-12-20T03:42:50;102590.69;;;10.19;100.00
46718;BME280;32448;44.960;-0.698;2023-12-20T03:45:17;102577.47;;;10.16;100.00
46718;BME280;32448;44.960;-0.698;2023-12-20T03:47:44;102591.34;;;10.15;100.00
46718;BME280;32448;44.960;-0.698;2023-12-20T03:50:11;102602.63;;;10.14;100.00
46718;BME280;32448;44.960;-0.698;2023-12-20T03:52:38;102616.34;;;10.10;100.00
46718;BME280;32448;44.960;-0.698;2023-12-20T03:55:06;102617.41;;;10.13;100.00
46718;BME280;32448;44.960;-0.698;2023-12-20T03:57:32;102624.03;;;10.07;100.00
46718;BME280;32448;44.960;-0.698;2023-12-20T03:59:59;102632.63;;;10.04;100.00
46718;BME280;32448;44.960;-0.698;2023-12-20T04:02:26;102626.72;;;10.08;100.00
46718;BME280;32448;44.960;-0.698;2023-12-20T04:04:53;102625.22;;;9.96;100.00
46718;BME280;32448;44.960;-0.698;2023-12-20T04:07:20;102627.72;;;9.93;100.00
46718;BME280;32448;44.960;-0.698;2023-12-20T04:09:47;102618.91;;;9.91;100.00
46718;BME280;32448;44.960;-0.698;2023-12-20T04:12:14;102626.72;;;9.91;100.00
46718;BME280;32448;44.960;-0.698;2023-12-20T04:14:41;102631.63;;;9.84;100.00
46718;BME280;32448;44.960;-0.698;2023-12-20T04:17:08;102627.09;;;9.80;100.00
46718;BME280;32448;44.960;-0.698;2023-12-20T04:19:35;102632.25;;;9.79;100.00
46718;BME280;32448;44.960;-0.698;2023-12-20T04:22:02;102621.69;;;9.60;100.00
46718;BME280;32448;44.960;-0.698;2023-12-20T04:24:29;102647.81;;;9.77;100.00
46718;BME280;32448;44.960;-0.698;2023-12-20T04:26:55;102652.25;;;9.62;100.00
46718;BME280;32448;44.960;-0.698;2023-12-20T04:29:22;102633.44;;;9.52;100.00
46718;BME280;32448;44.960;-0.698;2023-12-20T04:31:50;102647.47;;;9.54;100.00
46718;BME280;32448;44.960;-0.698;2023-12-20T04:34:18;102638.03;;;9.56;100.00
46718;BME280;32448;44.960;-0.698;2023-12-20T04:36:45;102642.69;;;9.45;100.00
46718;BME280;32448;44.960;-0.698;2023-12-20T04:39:13;102630.41;;;9.26;100.00
46718;BME280;32448;44.960;-0.698;2023-12-20T04:41:41;102664.38;;;9.44;100.00
46718;BME280;32448;44.960;-0.698;2023-12-20T04:44:07;102652.03;;;9.24;100.00
46718;BME280;32448;44.960;-0.698;2023-12-20T04:46:34;102663.91;;;9.19;100.00
46718;BME280;32448;44.960;-0.698;2023-12-20T04:49:01;102651.84;;;9.21;100.00
46718;BME280;32448;44.960;-0.698;2023-12-20T04:51:28;102650.88;;;9.19;100.00
46718;BME280;32448;44.960;-0.698;2023-12-20T04:53:55;102658.13;;;9.08;100.00
46718;BME280;32448;44.960;-0.698;2023-12-20T04:56:22;102656.41;;;9.08;100.00
46718;BME280;32448;44.960;-0.698;2023-12-20T04:58:48;102659.13;;;8.94;100.00
46718;BME280;32448;44.960;-0.698;2023-12-20T05:01:15;102660.16;;;8.97;100.00
46718;BME280;32448;44.960;-0.698;2023-12-20T05:03:42;102659.34;;;8.98;100.00
46718;BME280;32448;44.960;-0.698;2023-12-20T05:06:12;102640.75;;;8.76;100.00
46718;BME280;32448;44.960;-0.698;2023-12-20T05:08:39;102644.84;;;8.71;100.00
46718;BME280;32448;44.960;-0.698;2023-12-20T05:11:06;102668.72;;;8.79;100.00
46718;BME280;32448;44.960;-0.698;2023-12-20T05:13:33;102678.66;;;8.86;100.00
46718;BME280;32448;44.960;-0.698;2023-12-20T05:16:10;102674.03;;;8.80;100.00
46718;BME280;32448;44.960;-0.698;2023-12-20T05:18:38;102685.56;;;8.69;100.00
46718;BME280;32448;44.960;-0.698;2023-12-20T05:21:04;102691.03;;;8.73;100.00
46718;BME280;32448;44.960;-0.698;2023-12-20T05:23:31;102694.84;;;8.64;100.00
46718;BME280;32448;44.960;-0.698;2023-12-20T05:25:58;102704.13;;;8.59;100.00
46718;BME280;32448;44.960;-0.698;2023-12-20T05:28:25;102699.53;;;8.55;100.00
46718;BME280;32448;44.960;-0.698;2023-12-20T05:30:53;102696.03;;;8.54;100.00
46718;BME280;32448;44.960;-0.698;2023-12-20T05:33:20;102704.75;;;8.55;100.00
46718;BME280;32448;44.960;-0.698;2023-12-20T05:35:47;102716.00;;;8.54;100.00
46718;BME280;32448;44.960;-0.698;2023-12-20T05:38:14;102693.53;;;8.41;100.00
46718;BME280;32448;44.960;-0.698;2023-12-20T05:40:40;102702.91;;;8.37;100.00
46718;BME280;32448;44.960;-0.698;2023-12-20T05:43:07;102709.38;;;8.44;100.00
46718;BME280;32448;44.960;-0.698;2023-12-20T05:45:34;102712.97;;;8.46;100.00
46718;BME280;32448;44.960;-0.698;2023-12-20T05:48:01;102725.91;;;8.45;100.00
46718;BME280;32448;44.960;-0.698;2023-12-20T05:50:28;102730.31;;;8.46;100.00
46718;BME280;32448;44.960;-0.698;2023-12-20T05:52:54;102734.91;;;8.35;100.00
46718;BME280;32448;44.960;-0.698;2023-12-20T05:55:21;102735.72;;;8.34;100.00
46718;BME280;32448;44.960;-0.698;2023-12-20T05:57:49;102743.53;;;8.34;100.00
46718;BME280;32448;44.960;-0.698;2023-12-20T06:02:56;102756.47;;;8.32;100.00
46718;BME280;32448;44.960;-0.698;2023-12-20T06:05:23;102764.28;;;8.32;100.00
46718;BME280;32448;44.960;-0.698;2023-12-20T06:07:50;102764.00;;;8.28;100.00
46718;BME280;32448;44.960;-0.698;2023-12-20T06:10:17;102763.38;;;8.17;100.00
46718;BME280;32448;44.960;-0.698;2023-12-20T06:12:44;102762.38;;;8.15;100.00
46718;BME280;32448;44.960;-0.698;2023-12-20T06:15:14;102765.06;;;8.17;100.00
46718;BME280;32448;44.960;-0.698;2023-12-20T06:17:41;102775.56;;;8.18;100.00
46718;BME280;32448;44.960;-0.698;2023-12-20T06:20:08;102774.22;;;8.10;100.00
46718;BME280;32448;44.960;-0.698;2023-12-20T06:22:36;102792.44;;;8.10;100.00
46718;BME280;32448;44.960;-0.698;2023-12-20T06:25:03;102786.16;;;8.07;100.00
46718;BME280;32448;44.960;-0.698;2023-12-20T06:27:30;102779.41;;;7.95;100.00
46718;BME280;32448;44.960;-0.698;2023-12-20T06:29:59;102804.63;;;7.96;100.00
46718;BME280;32448;44.960;-0.698;2023-12-20T06:32:26;102805.28;;;7.92;100.00
46718;BME280;32448;44.960;-0.698;2023-12-20T06:34:53;102795.63;;;7.77;100.00
46718;BME280;32448;44.960;-0.698;2023-12-20T06:37:20;102818.16;;;7.61;100.00
46718;BME280;32448;44.960;-0.698;2023-12-20T06:39:50;102810.69;;;7.67;100.00
46718;BME280;32448;44.960;-0.698;2023-12-20T06:42:17;102837.25;;;7.62;100.00
46718;BME280;32448;44.960;-0.698;2023-12-20T06:44:44;102827.50;;;7.45;100.00
46718;BME280;32448;44.960;-0.698;2023-12-20T06:47:11;102825.50;;;7.41;100.00
46718;BME280;32448;44.960;-0.698;2023-12-20T06:49:41;102830.75;;;7.27;100.00
46718;BME280;32448;44.960;-0.698;2023-12-20T06:52:08;102837.09;;;7.18;100.00
46718;BME280;32448;44.960;-0.698;2023-12-20T06:54:36;102841.06;;;7.13;100.00
46718;BME280;32448;44.960;-0.698;2023-12-20T06:57:03;102839.69;;;7.18;100.00
46718;BME280;32448;44.960;-0.698;2023-12-20T06:59:31;102847.97;;;7.12;100.00
46718;BME280;32448;44.960;-0.698;2023-12-20T07:02:01;102849.69;;;6.99;100.00
46718;BME280;32448;44.960;-0.698;2023-12-20T07:04:28;102850.41;;;6.83;100.00
46718;BME280;32448;44.960;-0.698;2023-12-20T07:06:55;102854.88;;;6.85;100.00
46718;BME280;32448;44.960;-0.698;2023-12-20T07:09:24;102840.22;;;6.73;100.00
46718;BME280;32448;44.960;-0.698;2023-12-20T07:11:52;102855.28;;;6.78;100.00
46718;BME280;32448;44.960;-0.698;2023-12-20T07:14:21;102849.97;;;6.77;100.00
46718;BME280;32448;44.960;-0.698;2023-12-20T07:16:48;102848.69;;;6.70;100.00
46718;BME280;32448;44.960;-0.698;2023-12-20T07:19:15;102865.66;;;6.65;100.00
46718;BME280;32448;44.960;-0.698;2023-12-20T07:21:42;102859.97;;;6.57;100.00
46718;BME280;32448;44.960;-0.698;2023-12-20T07:24:09;102867.16;;;6.48;100.00
46718;BME280;32448;44.960;-0.698;2023-12-20T07:26:35;102874.41;;;6.41;100.00
46718;BME280;32448;44.960;-0.698;2023-12-20T07:29:04;102884.63;;;6.38;100.00
46718;BME280;32448;44.960;-0.698;2023-12-20T07:31:31;102886.91;;;6.33;100.00
46718;BME280;32448;44.960;-0.698;2023-12-20T07:33:58;102881.97;;;6.25;100.00
46718;BME280;32448;44.960;-0.698;2023-12-20T07:36:25;102889.94;;;6.14;100.00
46718;BME280;32448;44.960;-0.698;2023-12-20T07:38:52;102898.53;;;6.13;100.00
46718;BME280;32448;44.960;-0.698;2023-12-20T07:41:19;102902.88;;;6.01;100.00
46718;BME280;32448;44.960;-0.698;2023-12-20T07:43:47;102903.94;;;5.92;100.00
46718;BME280;32448;44.960;-0.698;2023-12-20T07:46:14;102920.50;;;5.94;100.00
46718;BME280;32448;44.960;-0.698;2023-12-20T07:48:41;102930.56;;;5.89;100.00
46718;BME280;32448;44.960;-0.698;2023-12-20T07:51:11;102933.00;;;5.88;100.00
46718;BME280;32448;44.960;-0.698;2023-12-20T07:53:38;102934.16;;;5.79;100.00
46718;BME280;32448;44.960;-0.698;2023-12-20T07:56:25;102953.22;;;5.80;100.00
46718;BME280;32448;44.960;-0.698;2023-12-20T07:58:52;102950.41;;;5.77;100.00
46718;BME280;32448;44.960;-0.698;2023-12-20T08:01:20;102949.88;;;5.69;100.00
46718;BME280;32448;44.960;-0.698;2023-12-20T08:03:49;102950.66;;;5.68;100.00
46718;BME280;32448;44.960;-0.698;2023-12-20T08:06:17;102945.47;;;5.68;100.00
46718;BME280;32448;44.960;-0.698;2023-12-20T08:08:44;102945.13;;;5.64;100.00
46718;BME280;32448;44.960;-0.698;2023-12-20T08:11:11;102957.53;;;5.68;100.00
46718;BME280;32448;44.960;-0.698;2023-12-20T08:13:38;102960.94;;;5.67;100.00
46718;BME280;32448;44.960;-0.698;2023-12-20T08:16:05;102952.84;;;5.62;100.00
46718;BME280;32448;44.960;-0.698;2023-12-20T08:18:32;102961.53;;;5.63;100.00
46718;BME280;32448;44.960;-0.698;2023-12-20T08:20:59;102958.59;;;5.58;100.00
46718;BME280;32448;44.960;-0.698;2023-12-20T08:23:27;102961.53;;;5.63;100.00
46718;BME280;32448;44.960;-0.698;2023-12-20T08:25:56;102965.69;;;5.61;100.00
46718;BME280;32448;44.960;-0.698;2023-12-20T08:28:22;102960.16;;;5.56;100.00
46718;BME280;32448;44.960;-0.698;2023-12-20T08:30:49;102961.84;;;5.56;100.00
46718;BME280;32448;44.960;-0.698;2023-12-20T08:33:20;102969.88;;;5.59;100.00
46718;BME280;32448;44.960;-0.698;2023-12-20T08:35:47;102970.41;;;5.55;100.00
46718;BME280;32448;44.960;-0.698;2023-12-20T08:38:14;102968.06;;;5.58;100.00
46718;BME280;32448;44.960;-0.698;2023-12-20T08:40:41;102970.09;;;5.62;100.00
46718;BME280;32448;44.960;-0.698;2023-12-20T08:43:08;102984.16;;;5.65;100.00
46718;BME280;32448;44.960;-0.698;2023-12-20T08:45:35;102978.78;;;5.62;100.00
46718;BME280;32448;44.960;-0.698;2023-12-20T08:48:03;102991.28;;;5.68;100.00
46718;BME280;32448;44.960;-0.698;2023-12-20T08:50:33;102984.81;;;5.74;100.00
46718;BME280;32448;44.960;-0.698;2023-12-20T08:53:00;102979.97;;;5.79;100.00
46718;BME280;32448;44.960;-0.698;2023-12-20T08:55:27;102988.66;;;5.79;100.00
46718;BME280;32448;44.960;-0.698;2023-12-20T08:57:55;102990.47;;;5.92;100.00
46718;BME280;32448;44.960;-0.698;2023-12-20T09:00:22;102997.47;;;5.93;100.00
46718;BME280;32448;44.960;-0.698;2023-12-20T09:02:54;102987.16;;;6.06;100.00
46718;BME280;32448;44.960;-0.698;2023-12-20T09:05:21;102995.88;;;6.07;100.00
46718;BME280;32448;44.960;-0.698;2023-12-20T09:07:49;102995.59;;;6.15;100.00
46718;BME280;32448;44.960;-0.698;2023-12-20T09:10:16;102994.31;;;6.22;100.00
46718;BME280;32448;44.960;-0.698;2023-12-20T09:12:50;102990.25;;;6.26;100.00
46718;BME280;32448;44.960;-0.698;2023-12-20T09:15:17;102990.44;;;6.40;100.00
46718;BME280;32448;44.960;-0.698;2023-12-20T09:17:44;102989.94;;;6.46;100.00
46718;BME280;32448;44.960;-0.698;2023-12-20T09:20:11;102998.53;;;6.45;100.00
46718;BME280;32448;44.960;-0.698;2023-12-20T09:22:40;102996.16;;;6.48;100.00
46718;BME280;32448;44.960;-0.698;2023-12-20T09:25:09;103013.94;;;6.55;100.00
46718;BME280;32448;44.960;-0.698;2023-12-20T09:27:37;103016.97;;;6.61;100.00
46718;BME280;32448;44.960;-0.698;2023-12-20T09:30:04;103022.88;;;6.58;100.00
46718;BME280;32448;44.960;-0.698;2023-12-20T09:32:32;103014.50;;;6.76;100.00
46718;BME280;32448;44.960;-0.698;2023-12-20T09:34:58;103017.53;;;6.82;100.00
46718;BME280;32448;44.960;-0.698;2023-12-20T09:37:26;103016.63;;;6.81;100.00
46718;BME280;32448;44.960;-0.698;2023-12-20T09:39:54;103021.22;;;6.85;100.00
46718;BME280;32448;44.960;-0.698;2023-12-20T09:42:29;103032.53;;;6.86;100.00
46718;BME280;32448;44.960;-0.698;2023-12-20T09:45:00;103025.28;;;6.93;100.00
46718;BME280;32448;44.960;-0.698;2023-12-20T09:47:29;103010.75;;;6.84;100.00
46718;BME280;32448;44.960;-0.698;2023-12-20T09:49:56;103021.47;;;7.02;100.00
46718;BME280;32448;44.960;-0.698;2023-12-20T09:52:23;103022.59;;;7.05;100.00
46718;BME280;32448;44.960;-0.698;2023-12-20T09:54:52;103031.47;;;7.09;100.00
46718;BME280;32448;44.960;-0.698;2023-12-20T09:57:19;103031.34;;;7.45;100.00
46718;BME280;32448;44.960;-0.698;2023-12-20T09:59:46;103010.63;;;7.47;100.00
46718;BME280;32448;44.960;-0.698;2023-12-20T10:02:14;103025.72;;;7.79;100.00
46718;BME280;32448;44.960;-0.698;2023-12-20T10:04:47;102990.50;;;7.71;100.00
46718;BME280;32448;44.960;-0.698;2023-12-20T10:07:15;103013.28;;;7.88;100.00
46718;BME280;32448;44.960;-0.698;2023-12-20T10:09:42;103006.28;;;7.87;100.00
46718;BME280;32448;44.960;-0.698;2023-12-20T10:12:09;103013.97;;;7.98;100.00
46718;BME280;32448;44.960;-0.698;2023-12-20T10:14:38;103022.94;;;8.17;100.00
46718;BME280;32448;44.960;-0.698;2023-12-20T10:17:06;103015.81;;;8.55;100.00
46718;BME280;32448;44.960;-0.698;2023-12-20T10:19:34;102995.69;;;8.67;100.00
46718;BME280;32448;44.960;-0.698;2023-12-20T10:22:04;103000.81;;;8.66;100.00
46718;BME280;32448;44.960;-0.698;2023-12-20T10:24:32;103000.47;;;8.60;100.00
46718;BME280;32448;44.960;-0.698;2023-12-20T10:27:06;102980.78;;;8.65;100.00
46718;BME280;32448;44.960;-0.698;2023-12-20T10:29:35;102980.97;;;8.68;100.00
46718;BME280;32448;44.960;-0.698;2023-12-20T10:32:25;102997.53;;;8.83;100.00
46718;BME280;32448;44.960;-0.698;2023-12-20T10:34:53;102997.44;;;9.11;100.00
46718;BME280;32448;44.960;-0.698;2023-12-20T10:37:21;102988.25;;;9.18;100.00
46718;BME280;32448;44.960;-0.698;2023-12-20T10:39:53;102943.91;;;8.88;100.00
46718;BME280;32448;44.960;-0.698;2023-12-20T10:42:26;102982.53;;;9.39;100.00
46718;BME280;32448;44.960;-0.698;2023-12-20T10:44:53;102979.66;;;9.49;100.00
46718;BME280;32448;44.960;-0.698;2023-12-20T10:47:21;102954.00;;;9.42;100.00
46718;BME280;32448;44.960;-0.698;2023-12-20T10:49:48;102965.25;;;9.41;100.00
46718;BME280;32448;44.960;-0.698;2023-12-20T10:52:16;102964.28;;;9.39;100.00
46718;BME280;32448;44.960;-0.698;2023-12-20T10:54:44;102950.09;;;9.34;100.00
46718;BME280;32448;44.960;-0.698;2023-12-20T10:57:11;102965.84;;;9.36;100.00
46718;BME280;32448;44.960;-0.698;2023-12-20T10:59:39;102959.44;;;9.31;100.00
46718;BME280;32448;44.960;-0.698;2023-12-20T11:02:06;102956.72;;;9.29;100.00
46718;BME280;32448;44.960;-0.698;2023-12-20T11:04:59;102963.22;;;9.36;100.00
46718;BME280;32448;44.960;-0.698;2023-12-20T11:07:32;102935.41;;;9.36;100.00
46718;BME280;32448;44.960;-0.698;2023-12-20T11:10:09;102967.06;;;9.42;100.00
46718;BME280;32448;44.960;-0.698;2023-12-20T11:12:51;102934.41;;;9.49;100.00
46718;BME280;32448;44.960;-0.698;2023-12-20T11:15:19;102937.03;;;9.65;100.00
46718;BME280;32448;44.960;-0.698;2023-12-20T11:17:47;102922.84;;;9.76;100.00
46718;BME280;32448;44.960;-0.698;2023-12-20T11:20:23;102927.16;;;9.76;100.00
46718;BME280;32448;44.960;-0.698;2023-12-20T11:22:54;102939.25;;;9.74;100.00
46718;BME280;32448;44.960;-0.698;2023-12-20T11:25:22;102931.94;;;9.83;100.00
46718;BME280;32448;44.960;-0.698;2023-12-20T11:28:10;102906.22;;;9.91;100.00
46718;BME280;32448;44.960;-0.698;2023-12-20T11:31:06;102918.78;;;10.14;100.00
46718;BME280;32448;44.960;-0.698;2023-12-20T11:33:37;102901.41;;;10.31;100.00
46718;BME280;32448;44.960;-0.698;2023-12-20T11:36:13;102899.75;;;10.49;100.00
46718;BME280;32448;44.960;-0.698;2023-12-20T11:39:08;102905.22;;;10.53;100.00
46718;BME280;32448;44.960;-0.698;2023-12-20T11:41:39;102899.31;;;10.57;100.00
46718;BME280;32448;44.960;-0.698;2023-12-20T11:44:06;102893.03;;;10.54;100.00
46718;BME280;32448;44.960;-0.698;2023-12-20T11:46:35;102900.78;;;10.52;100.00
46718;BME280;32448;44.960;-0.698;2023-12-20T11:49:02;102884.66;;;10.61;100.00
46718;BME280;32448;44.960;-0.698;2023-12-20T11:51:30;102883.75;;;10.61;100.00
46718;BME280;32448;44.960;-0.698;2023-12-20T11:53:56;102880.34;;;10.62;100.00
46718;BME280;32448;44.960;-0.698;2023-12-20T11:56:24;102886.97;;;10.55;100.00
46718;BME280;32448;44.960;-0.698;2023-12-20T11:58:50;102872.75;;;10.50;100.00
46718;BME280;32448;44.960;-0.698;2023-12-20T12:01:19;102875.63;;;10.54;100.00
46718;BME280;32448;44.960;-0.698;2023-12-20T12:03:46;102869.75;;;10.58;100.00
46718;BME280;32448;44.960;-0.698;2023-12-20T12:06:13;102853.16;;;10.58;100.00
46718;BME280;32448;44.960;-0.698;2023-12-20T12:08:40;102861.66;;;10.72;100.00
46718;BME280;32448;44.960;-0.698;2023-12-20T12:11:07;102855.31;;;10.67;100.00
46718;BME280;32448;44.960;-0.698;2023-12-20T12:13:34;102851.59;;;10.79;100.00
46718;BME280;32448;44.960;-0.698;2023-12-20T12:16:02;102846.44;;;10.99;100.00
46718;BME280;32448;44.960;-0.698;2023-12-20T12:18:29;102851.66;;;10.99;100.00
46718;BME280;32448;44.960;-0.698;2023-12-20T12:21:00;102854.53;;;11.03;100.00
46718;BME280;32448;44.960;-0.698;2023-12-20T12:23:28;102862.66;;;11.09;100.00
46718;BME280;32448;44.960;-0.698;2023-12-20T12:25:55;102858.84;;;11.03;100.00
46718;BME280;32448;44.960;-0.698;2023-12-20T12:28:26;102857.19;;;11.05;100.00
46718;BME280;32448;44.960;-0.698;2023-12-20T12:30:58;102833.00;;;10.91;100.00
46718;BME280;32448;44.960;-0.698;2023-12-20T12:33:26;102835.44;;;11.06;100.00
46718;BME280;32448;44.960;-0.698;2023-12-20T12:35:54;102843.28;;;11.06;100.00
46718;BME280;32448;44.960;-0.698;2023-12-20T12:38:22;102835.50;;;11.07;100.00
46718;BME280;32448;44.960;-0.698;2023-12-20T12:40:49;102812.50;;;11.00;100.00
46718;BME280;32448;44.960;-0.698;2023-12-20T12:43:16;102842.69;;;11.11;100.00
46718;BME280;32448;44.960;-0.698;2023-12-20T12:45:43;102828.94;;;10.98;100.00
46718;BME280;32448;44.960;-0.698;2023-12-20T12:48:10;102832.91;;;10.89;100.00
46718;BME280;32448;44.960;-0.698;2023-12-20T12:50:37;102825.72;;;10.85;100.00
46718;BME280;32448;44.960;-0.698;2023-12-20T12:53:04;102820.38;;;10.82;100.00